Latest METARs, TAFs and NOTAMs for LIPZ


---------------------------------------------------------------------------
	(OBSERVATIONS)
LIPZ 231450Z 12005KT CAVOK 17/11 Q1012 NOSIG=
LIPZ 231420Z 15004KT 120V190 CAVOK 18/10 Q1012 NOSIG=
LIPZ 231350Z 15005KT 120V180 CAVOK 17/11 Q1012 NOSIG=
LIPZ 231320Z 13005KT 110V170 CAVOK 17/10 Q1012 NOSIG=
LIPZ 231250Z 11005KT 050V160 CAVOK 16/10 Q1012 NOSIG=
LIPZ 231220Z 13005KT 100V160 CAVOK 16/09 Q1012 NOSIG=
---------------------------------------------------------------------------
	(FC)
Sorry, FC For LIPZ Not Found
---------------------------------------------------------------------------
	(TERMINAL AREA FORECAST)
LIPZ 231100Z 2312/2418 VRB06KT CAVOK=
---------------------------------------------------------------------------
	(NOTAMS)


LIPZ A0570/17 REF AOC TYPE B NR PZ 3/4 NEW OBSTACLE ERECTED POLE
    PENETRATING TRANSITIONAL SURFACE PSN COORD (WGS84): - 452943.1
    N 0122031.2 E MAX ELEV AGL 5.9M/19.4FT MAX ELEV AMSL 7.5M/24.6FT
    ICAO SIGNAL PROVIDED - 453002.1 N 0122055.5 E MAX ELEV AGL
    6.0M/19.7FT MAX ELEV AMSL 7.5M/24.6FT ICAO SIGNAL PROVIDED
    - 453021.5 N 0122120.5 E MAX ELEV AGL 5.9M/19.4FT MAX ELEV
    AMSL 7.4M/24.3FT ICAO SIGNAL PROVIDED - 453040.7 N 0122145.2
    E MAX ELEV AGL 5.9M/19.4FT MAX ELEV AMSL PART 1 OF 3. 30
    JAN 09:21 2017 UNTIL PERM. CREATED: 30 JAN 09:26 2017

LIPZ A0570/17 7.4M/24.3FT ICAO SIGNAL PROVIDED - 452947.1 N 0122036.2
    E MAX ELEV AGL 4.0M/13.1FT MAX ELEV AMSL 5.6M/18.4FT ICAO
    SIGNAL PROVIDED - 452951.0 N 0122041.1 E MAX ELEV AGL 4.0M/13.1FT
    MAX ELEV AMSL 5.6M/18.4FT ICAO SIGNAL PROVIDED - 452954.8
    N 0122046.1 E MAX ELEV AGL 4.0M/13.1FT MAX ELEV AMSL 5.6M/18.4FT
    ICAO SIGNAL PROVIDED - 452958.6 N 0122051.1 E MAX ELEV AGL
    4.0M/13.1FT MAX ELEV AMSL 5.6M/18.4FT ICAO SIGNAL PROVIDED
    - 453006.4 N 0122101.1 E MAX ELEV AGL 4.0M/13.1FT MAX ELEV
    AMSL 5.6M/18.4FT ICAO SIGNAL PROVIDED - 453010.2 N 0122106.0
    E MAX ELEV AGL 4.0M/13.1FT MAX ELEV AMSL 5.6M/18.4FT ICAO
    SIGNAL PROVIDED - 453014.1 N 0122110.9 E MAX ELEV AGL 4.0M/13.1FT
    MAX ELEV AMSL 5.6M/18.4FT ICAO SIGNAL PROVIDED - 453017.9
    N 0122115.8 E MAX ELEV AGL 4.0M/13.1FT MAX ELEV AMSL 5.6M/18.4FT
    ICAO SIGNAL PROVIDED PART 2 OF 3. 30 JAN 09:21 2017 UNTIL
    PERM. CREATED: 30 JAN 09:26 2017

LIPZ A0570/17 - 453025.6 N 0122125.8 E MAX ELEV AGL 4.0M/13.1FT
    MAX ELEV AMSL 5.6M/18.4FT ICAO SIGNAL PROVIDED - 453029.5
    N 0122130.7 E MAX ELEV AGL 4.0M/13.1FT MAX ELEV AMSL 5.6M/18.4FT
    ICAO SIGNAL PROVIDED - 453033.3 N 0122135.6 E MAX ELEV AGL
    4.0M/13.1FT MAX ELEV AMSL 5.6M/18.4FT ICAO SIGNAL PROVIDED
    - 453037.1 N 0122140.5 E MAX ELEV AGL 4.0M/13.1FT MAX ELEV
    AMSL 5.6M/18.4FT ICAO SIGNAL PROVIDED - 453044.4 N 0122149.9
    E MAX ELEV AGL 4.0M/13.1FT MAX ELEV AMSL 5.6M/18.4FT ICAO
    SIGNAL PROVIDED - 453047.8 N 0122154.3 E MAX ELEV AGL 4.0M/13.1FT
    MAX ELEV AMSL 5.6M/18.4FT ICAO SIGNAL PROVIDED - 453051.3
    N 0122158.8 E MAX ELEV AGL 4.0M/13.1FT MAX ELEV AMSL 5.6M/18.4FT
    ICAO SIGNAL PROVIDED - 453054.8 N 0122203.1 E MAX ELEV AGL
    4.0M/13.1FT MAX ELEV AMSL 5.6M/18.4FT ICAO SIGNAL PROVIDED
    - 453056.2 N 0122205.0 E MAX ELEV AGL 3.5M/11.5FT MAX ELEV
    AMSL 5.1M/16.7FT ICAO SIGNAL PROVIDED) PART 3 OF 3. 30 JAN
    09:21 2017 UNTIL PERM. CREATED: 30 JAN 09:26 2017

LIPZ A2416/17 REF AIP AD 2 LIPZ 6-17 AND 6-21 STANDARD INSTRUMENT
    DEPARTURE RWY 22 L/R SID BASOG 6V (ATC DISCRETION) MODIFY
    MINIMUM CROSSING LEVEL AS FLW: RDL/QDR 129/38NM VIC NDB-VOR/DME:
    FL90. 19 APR 06:33 2017 UNTIL PERM. CREATED: 19 APR 06:33
    2017

LIPZ A5075/17 ADVANCED ULTRA LIGHT MACHINES ARE NOT ALLOWED TO
    ENTER ATZ. REF AIP AD 2 LIPZ 1-9, NOTAM PERM A5065/17 AND
    C0684/17. 01 AUG 00:01 2017 UNTIL 29 OCT 23:59 2017 ESTIMATED.
    CREATED: 27 JUL 17:06 2017

LIPZ A5377/17 CHIOGGIA NDB 'CHI' FREQ 408.00KHZ NOT AVAILABLE
    DUE TO MAINT. REF AIP AD 2 LIPZ 1-8. 11 AUG 11:40 2017 UNTIL
    09 NOV 10:30 2017 ESTIMATED. CREATED: 11 AUG 11:40 2017

LIPZ A5920/17 AD CLSD TO ALL TRAFFIC DUE TO WIP. REF AIP AD 2
    LIPZ 1-1. TUE AND WED 2230-0250, 26 SEP 22:30 2017 UNTIL
    26 OCT 02:50 2017. CREATED: 07 SEP 12:45 2017

LIPZ A6172/17 WIND DIRECTION INDICATOR (WDI) IN PROXIMITY OF
    FIRE STATION, PSN (WGS-84) 453014.0N 0122042.6E WITHDRAWN
    REF AIP AD 2 LIPZ 2-1. 15 SEP 08:50 2017 UNTIL 07 DEC 23:59
    2017. CREATED: 15 SEP 08:51 2017

LIPZ A6282/17 REF AIP AD 2 LIPZ 1-1 ITEM 2 'AERODROME GEOGRAPHICAL
    AND ADMINISTRATIVE DATA' BOX 8 'REMARKS' CHANGE TO READ:
    1) FLIGHT FACILITIES ANNEX 14 REFERENCE CODE: 4F. 18 SEP
    15:39 2017 UNTIL PERM. CREATED: 18 SEP 15:39 2017

LIPZ A6354/17 REF AIP AD 2 LIPZ 6-9 STANDARD INSTRUMENT DEPARTURE
    RWY04 L/R (TES VOR/DME) SID BELOV 7V ALONG TR 156DEG MODIFY
    CODE BELOV 6V TO READ BELOV 7V DUE TO A MISPRINTING. 21 SEP
    09:13 2017 UNTIL PERM. CREATED: 21 SEP 09:13 2017

LIPZ A6391/17 TWY 'A' AVAILABLE FOR ACFT UP TO CATEGORY ICAO
    'D' INCLUDED DUE TO OPERATIONAL REASONS. REF AIP AD 2 LIPZ
    2-1. 23 SEP 04:30 2017 UNTIL 27 OCT 16:00 2017. CREATED:
    22 SEP 13:00 2017

LIPZ A6393/17 DE-ICING BAY USED AS PARKING AREA FOR GENERAL AVIATION
    ACFT, PUSH-BACK TRACTOR IS COMPULSORY FOR ALL MOVEMENTS REF
    AIP AD 2 LIPZ 2-13. 23 SEP 04:30 2017 UNTIL 27 OCT 16:00
    2017. CREATED: 22 SEP 13:05 2017

LIPZ A6394/17 TWY 'Z' CLSD DUE TO TECR. RMK: DAY AND NIGHT ICAO
    SGL PROVIDED. REF AIP AD 2 LIPZ 2-1. 23 SEP 04:30 2017 UNTIL
    27 OCT 16:00 2017. CREATED: 22 SEP 13:45 2017

LIPZ A6424/17 AIRCRAFT STAND 549 CLOSED DUE TO TECR. REF AIP
    AD 2 LIPZ 2-13. 26 SEP 04:00 2017 UNTIL 31 OCT 16:00 2017.
    CREATED: 25 SEP 11:01 2017

LIPZ A6555/17 IN ORDER TO AVOID DAMAGES DUE TO JET BLAST PILOTS
    ARE REQUIRED TO APPLY THE MINIMUM THRUST TO EXIT FROM STANDS
    217, 219, 221 AND WHEN TAXIING ON APRON TWY 'K' REF AIP AD
    2 LIPZ 1-9 AND 2-13. 29 SEP 13:31 2017 UNTIL 07 DEC 23:59
    2017. CREATED: 29 SEP 13:31 2017

LIPZ A6556/17 START POINTS IMPLEMENTED AND ASSOCIATED TO ACFT
    STANDS AS FOLLOWS: ACFT STAND 325 FOR ACFT WITH CODE LETTER
    'C' OR LOWER: START POINT SP2, ACFT STAND 325 FOR ACFT WITH
    CODE LETTER 'D' OR HIGHER: START POINT SP1, ACFT STAND 326
    FOR ACFT WITH CODE LETTER 'C' OR LOWER: START POINT SP1,
    ACFT STAND 326 FOR ACFT WITH CODE LETTER 'D' OR HIGHER: START
    POINT SP3. RMK: AIRCRAFT PUSHING BACK FROM ACFT STAND 325
    CAN START ENGINES ONLY WHEN AT THE APPLICABLE START POINT.
    REF AIP AD 2 LIPZ 2-13. 29 SEP 13:36 2017 UNTIL 07 DEC 23:59
    2017. CREATED: 29 SEP 13:36 2017

LIPZ A6604/17 TWY 'T', 'L', 'M', 'W' TAX WITH CAUTION DUE TO
    WIP OUT OF THE TAXI ROUTE STRIP. ACTIVITY UNDER SUPERVISION
    BY THE AERODROME OPERATOR. REF AIP AD 2 LIPZ 2-1 AND 2-13.
    03 OCT 08:59 2017 UNTIL 22 DEC 20:00 2017. CREATED: 03 OCT
    08:59 2017

LIPZ A6635/17 AD CLOSED TO ALL TRAFFIC DUE TO WIP. REF AIP DA
    2 LIPZ 1-1. TUE AND WED 2330-0350, 31 OCT 23:30 2017 UNTIL
    23 NOV 03:50 2017. CREATED: 05 OCT 09:39 2017

LIPZ A6794/17 REF AIP AD 2 LIPZ 1-9 ITEM 20 'LOCAL TRAFFIC REGULATIONS'
    BOX 7 'PROVISIONS FOR GENERAL AVIATION AIRCRAFT' CHANGE TO
    READ: 1) ALL GENERAL AVIATION AND AIR TAXI FLIGHTS, OPERATING
    AT LIPZ AIRPORT, MUST BE PREVIOUSLY ACCEPTED WITH PPR ACCORDING
    TO STANDS AVAILABILITY. THE CLEARANCE REQUEST MUST BE SUBMITTED
    AT LEAST 8 HOURS BEFORE THE ESTIMATED TIME OF ARRIVAL (ETA)
    ONLY TO ONE OF THE FOLLOWING HANDLING AGENT OPERATING AT
    LIPZ AIRPORT SENDING: A) AIRCRAFT TYPE B) REGISTRATION AND
    CALL SIGN C) ESTIMATED TIME OF ARRIVAL D) ESTIMATED TIME
    OF DEPARTURE E) ORIGIN. DESTINATION 'SAVE - AERODROME OPERATOR'
    MIGHT REFUSE REQUESTS NOT HAVING THE ABOVE MENTIONED DETAILS.
    PROCEDURE APPROVED BY LOCAL CIVIL AVIATION AUTHORITY, ENAC
    ORDINANCE NR 23/2012, 11 OCT 18:20 2017 UNTIL PERM. CREATED:
    11 OCT 18:23 2017

LIPZ A6795/17 AD CLOSED DUE TO ANNUAL FULL SCALE EMERGENCY EXER.
    REF AIP AD 2 LIPZ 1-1. 17 NOV 23:30 2017 UNTIL 18 NOV 03:00
    2017. CREATED: 11 OCT 20:15 2017

LIPZ A6977/17 AERODROME CONTROL SERVICE. GROUND MOVEMENT CONTROL
    PROVIDED WITHOUT USE OF SMR REF AIP AD 2 LIPZ 1-11. 24 OCT
    07:00 2017 UNTIL 24 OCT 10:00 2017. CREATED: 18 OCT 15:38
    2017

LIPZ A7025/17 TWY 'C' CLSD DUE TO TECR REF AIP AD 2 LIPZ 2-1.
    20 OCT 06:27 2017 UNTIL 20 DEC 07:00 2017. CREATED: 20 OCT
    06:27 2017

LIPZ A7051/17 RWY 04R/22L AND 04L/22R CLSD TO ALL OPS DUE TO
    WIP REF AIP AD 2 LIPZ 2-1. 23 AND 26 2230-0250, 23 OCT 22:30
    2017 UNTIL 27 OCT 02:50 2017. CREATED: 20 OCT 14:10 2017

LIPZ A7052/17 ACFT STAND '328' CLSD DUE TO WIP REF AIP AD 2 LIPZ
    2-13. 24 OCT 21:00 2017 UNTIL 25 OCT 04:00 2017. CREATED:
    20 OCT 14:55 2017

LIPZ F0015/07 [DEFENSE ENERGY SUPPORT CENTER ADVISORY] FUEL AVAILABILITY
    NOT AVAILABLE PHONE AHEAD FOR FUEL AVAILABILITY. 12 JUL 10:20
    2020 UNTIL 01 AUG 25:20 2020

---------------------------------------------------------------------------